sensor_id;sensor_type;location;lat;lon;timestamp;pressure;altitude;pressure_sealevel;temperature;humidity
46111;BME280;31849;55.992;37.252;2023-05-25T00:00:27;99162.75;;;15.29;69.97
46111;BME280;31849;55.992;37.252;2023-05-25T00:05:32;99155.84;;;15.25;70.05
46111;BME280;31849;55.992;37.252;2023-05-25T00:10:36;99157.75;;;15.20;70.16
46111;BME280;31849;55.992;37.252;2023-05-25T00:15:39;99149.09;;;15.17;70.07
46111;BME280;31849;55.992;37.252;2023-05-25T00:20:45;99145.88;;;15.07;70.42
46111;BME280;31849;55.992;37.252;2023-05-25T00:25:49;99138.16;;;15.01;70.59
46111;BME280;31849;55.992;37.252;2023-05-25T00:30:52;99139.16;;;14.97;70.53
46111;BME280;31849;55.992;37.252;2023-05-25T00:35:58;99140.97;;;14.93;70.76
46111;BME280;31849;55.992;37.252;2023-05-25T00:41:02;99139.38;;;14.87;70.56
46111;BME280;31849;55.992;37.252;2023-05-25T00:46:08;99142.91;;;14.86;70.61
46111;BME280;31849;55.992;37.252;2023-05-25T00:51:14;99143.16;;;14.75;70.72
46111;BME280;31849;55.992;37.252;2023-05-25T00:56:20;99150.19;;;14.73;70.80
46111;BME280;31849;55.992;37.252;2023-05-25T01:01:26;99133.72;;;14.70;70.76
46111;BME280;31849;55.992;37.252;2023-05-25T01:06:38;99126.59;;;14.75;71.29
46111;BME280;31849;55.992;37.252;2023-05-25T01:11:49;99129.09;;;14.80;71.58
46111;BME280;31849;55.992;37.252;2023-05-25T01:16:53;99123.94;;;14.76;71.86
46111;BME280;31849;55.992;37.252;2023-05-25T01:22:03;99110.81;;;14.78;71.71
46111;BME280;31849;55.992;37.252;2023-05-25T01:27:14;99104.81;;;14.74;72.05
46111;BME280;31849;55.992;37.252;2023-05-25T01:32:18;99099.53;;;14.76;72.67
46111;BME280;31849;55.992;37.252;2023-05-25T01:37:23;99106.06;;;14.94;71.14
46111;BME280;31849;55.992;37.252;2023-05-25T01:42:29;99104.84;;;15.07;72.66
46111;BME280;31849;55.992;37.252;2023-05-25T01:47:39;99090.25;;;15.30;72.74
46111;BME280;31849;55.992;37.252;2023-05-25T01:52:51;99093.16;;;15.51;73.15
46111;BME280;31849;55.992;37.252;2023-05-25T01:57:58;99105.97;;;15.61;72.97
46111;BME280;31849;55.992;37.252;2023-05-25T02:03:02;99107.28;;;15.76;72.98
46111;BME280;31849;55.992;37.252;2023-05-25T02:08:08;99105.94;;;15.93;72.71
46111;BME280;31849;55.992;37.252;2023-05-25T02:13:11;99105.75;;;16.00;72.69
46111;BME280;31849;55.992;37.252;2023-05-25T02:18:15;99099.97;;;16.17;72.23
46111;BME280;31849;55.992;37.252;2023-05-25T02:23:20;99102.28;;;16.27;71.90
46111;BME280;31849;55.992;37.252;2023-05-25T02:28:24;99087.53;;;16.24;71.48
46111;BME280;31849;55.992;37.252;2023-05-25T02:33:27;99100.94;;;16.42;71.44
46111;BME280;31849;55.992;37.252;2023-05-25T02:38:32;99103.03;;;16.59;71.12
46111;BME280;31849;55.992;37.252;2023-05-25T02:43:36;99102.78;;;16.66;70.83
46111;BME280;31849;55.992;37.252;2023-05-25T02:48:40;99123.00;;;16.91;70.23
46111;BME280;31849;55.992;37.252;2023-05-25T02:53:46;99132.75;;;17.13;69.62
46111;BME280;31849;55.992;37.252;2023-05-25T02:58:50;99135.81;;;17.26;69.30
46111;BME280;31849;55.992;37.252;2023-05-25T03:03:55;99144.94;;;17.40;69.00
46111;BME280;31849;55.992;37.252;2023-05-25T03:09:01;99144.19;;;17.62;67.92
46111;BME280;31849;55.992;37.252;2023-05-25T03:14:06;99155.19;;;17.72;67.73
46111;BME280;31849;55.992;37.252;2023-05-25T03:19:09;99170.34;;;17.90;66.79
46111;BME280;31849;55.992;37.252;2023-05-25T03:24:15;99169.75;;;18.06;66.43
46111;BME280;31849;55.992;37.252;2023-05-25T03:29:18;99174.72;;;18.14;66.27
46111;BME280;31849;55.992;37.252;2023-05-25T03:34:22;99172.44;;;18.28;66.24
46111;BME280;31849;55.992;37.252;2023-05-25T03:39:28;99160.69;;;18.59;65.18
46111;BME280;31849;55.992;37.252;2023-05-25T03:44:32;99164.50;;;18.96;63.93
46111;BME280;31849;55.992;37.252;2023-05-25T03:49:35;99173.47;;;19.33;63.04
46111;BME280;31849;55.992;37.252;2023-05-25T03:54:40;99168.44;;;19.68;62.00
46111;BME280;31849;55.992;37.252;2023-05-25T03:59:44;99146.41;;;19.90;61.13
46111;BME280;31849;55.992;37.252;2023-05-25T04:04:48;99149.97;;;20.27;60.13
46111;BME280;31849;55.992;37.252;2023-05-25T04:09:54;99154.31;;;20.64;59.13
46111;BME280;31849;55.992;37.252;2023-05-25T04:14:59;99137.44;;;21.21;57.58
46111;BME280;31849;55.992;37.252;2023-05-25T04:20:07;99137.19;;;22.26;55.06
46111;BME280;31849;55.992;37.252;2023-05-25T04:25:14;99151.50;;;23.61;51.77
46111;BME280;31849;55.992;37.252;2023-05-25T04:30:18;99145.41;;;24.85;48.74
46111;BME280;31849;55.992;37.252;2023-05-25T04:35:21;99157.25;;;25.07;48.58
46111;BME280;31849;55.992;37.252;2023-05-25T04:40:26;99150.66;;;24.45;49.19
46111;BME280;31849;55.992;37.252;2023-05-25T04:45:29;99142.75;;;24.16;50.01
46111;BME280;31849;55.992;37.252;2023-05-25T04:50:34;99135.09;;;23.97;50.02
46111;BME280;31849;55.992;37.252;2023-05-25T04:55:39;99137.84;;;24.37;49.44
46111;BME280;31849;55.992;37.252;2023-05-25T05:00:44;99135.91;;;24.54;48.47
46111;BME280;31849;55.992;37.252;2023-05-25T05:05:48;99152.78;;;24.95;47.42
46111;BME280;31849;55.992;37.252;2023-05-25T05:10:53;99151.84;;;25.08;47.04
46111;BME280;31849;55.992;37.252;2023-05-25T05:15:56;99151.88;;;26.48;43.99
46111;BME280;31849;55.992;37.252;2023-05-25T05:21:00;99148.16;;;27.80;40.89
46111;BME280;31849;55.992;37.252;2023-05-25T05:26:06;99144.50;;;27.00;41.98
46111;BME280;31849;55.992;37.252;2023-05-25T05:31:12;99150.13;;;26.84;42.52
46111;BME280;31849;55.992;37.252;2023-05-25T05:36:18;99141.81;;;27.36;41.31
46111;BME280;31849;55.992;37.252;2023-05-25T05:41:23;99137.72;;;28.77;39.18
46111;BME280;31849;55.992;37.252;2023-05-25T05:46:26;99137.72;;;28.99;38.55
46111;BME280;31849;55.992;37.252;2023-05-25T05:51:30;99136.53;;;29.12;38.32
46111;BME280;31849;55.992;37.252;2023-05-25T05:56:35;99128.25;;;28.18;39.81
46111;BME280;31849;55.992;37.252;2023-05-25T06:01:39;99134.97;;;26.37;42.75
46111;BME280;31849;55.992;37.252;2023-05-25T06:06:43;99145.84;;;24.92;45.69
46111;BME280;31849;55.992;37.252;2023-05-25T06:11:48;99147.03;;;24.04;47.13
46111;BME280;31849;55.992;37.252;2023-05-25T06:16:53;99147.59;;;23.81;47.97
46111;BME280;31849;55.992;37.252;2023-05-25T06:21:56;99150.91;;;23.56;48.62
46111;BME280;31849;55.992;37.252;2023-05-25T06:27:02;99149.69;;;23.61;48.85
46111;BME280;31849;55.992;37.252;2023-05-25T06:32:06;99153.19;;;23.76;48.33
46111;BME280;31849;55.992;37.252;2023-05-25T06:37:11;99148.06;;;23.73;48.98
46111;BME280;31849;55.992;37.252;2023-05-25T06:42:18;99146.94;;;23.77;48.26
46111;BME280;31849;55.992;37.252;2023-05-25T06:47:21;99148.53;;;23.51;49.15
46111;BME280;31849;55.992;37.252;2023-05-25T06:52:25;99149.25;;;23.24;49.61
46111;BME280;31849;55.992;37.252;2023-05-25T06:57:32;99150.09;;;23.10;49.75
46111;BME280;31849;55.992;37.252;2023-05-25T07:02:35;99156.16;;;23.12;50.13
46111;BME280;31849;55.992;37.252;2023-05-25T07:07:39;99151.63;;;22.98;50.07
46111;BME280;31849;55.992;37.252;2023-05-25T07:12:44;99142.00;;;23.28;49.60
46111;BME280;31849;55.992;37.252;2023-05-25T07:17:48;99136.59;;;23.29;49.72
46111;BME280;31849;55.992;37.252;2023-05-25T07:22:51;99138.41;;;23.43;49.40
46111;BME280;31849;55.992;37.252;2023-05-25T07:27:56;99123.72;;;23.66;48.88
46111;BME280;31849;55.992;37.252;2023-05-25T07:33:00;99127.22;;;23.67;49.17
46111;BME280;31849;55.992;37.252;2023-05-25T07:38:03;99121.81;;;23.83;48.51
46111;BME280;31849;55.992;37.252;2023-05-25T07:43:08;99126.84;;;23.73;48.56
46111;BME280;31849;55.992;37.252;2023-05-25T07:48:12;99123.25;;;23.74;48.53
46111;BME280;31849;55.992;37.252;2023-05-25T07:53:16;99121.06;;;23.95;48.43
46111;BME280;31849;55.992;37.252;2023-05-25T07:58:20;99121.38;;;23.91;48.91
46111;BME280;31849;55.992;37.252;2023-05-25T08:03:24;99115.16;;;24.04;49.02
46111;BME280;31849;55.992;37.252;2023-05-25T08:08:48;99122.31;;;24.31;48.28
46111;BME280;31849;55.992;37.252;2023-05-25T08:13:53;99129.22;;;24.48;48.17
46111;BME280;31849;55.992;37.252;2023-05-25T08:19:21;99122.22;;;24.33;48.13
46111;BME280;31849;55.992;37.252;2023-05-25T08:24:25;99133.16;;;24.14;48.89
46111;BME280;31849;55.992;37.252;2023-05-25T08:29:30;99136.91;;;23.97;49.30
46111;BME280;31849;55.992;37.252;2023-05-25T08:34:33;99131.22;;;23.88;49.13
46111;BME280;31849;55.992;37.252;2023-05-25T08:39:37;99135.38;;;23.64;49.75
46111;BME280;31849;55.992;37.252;2023-05-25T08:44:42;99131.09;;;23.47;49.79
46111;BME280;31849;55.992;37.252;2023-05-25T08:49:47;99126.81;;;23.30;50.45
46111;BME280;31849;55.992;37.252;2023-05-25T08:54:54;99125.34;;;23.10;50.51
46111;BME280;31849;55.992;37.252;2023-05-25T09:00:05;99134.69;;;23.01;50.97
46111;BME280;31849;55.992;37.252;2023-05-25T09:05:12;99119.94;;;22.81;51.29
46111;BME280;31849;55.992;37.252;2023-05-25T09:10:16;99136.03;;;22.78;51.41
46111;BME280;31849;55.992;37.252;2023-05-25T09:15:21;99135.22;;;22.45;52.09
46111;BME280;31849;55.992;37.252;2023-05-25T09:20:25;99132.22;;;22.20;52.48
46111;BME280;31849;55.992;37.252;2023-05-25T09:25:32;99124.38;;;22.34;52.37
46111;BME280;31849;55.992;37.252;2023-05-25T09:30:39;99115.00;;;22.75;51.24
46111;BME280;31849;55.992;37.252;2023-05-25T09:35:43;99109.97;;;23.00;50.54
46111;BME280;31849;55.992;37.252;2023-05-25T09:40:47;99118.75;;;23.17;50.65
46111;BME280;31849;55.992;37.252;2023-05-25T09:45:52;99114.59;;;23.27;50.58
46111;BME280;31849;55.992;37.252;2023-05-25T09:50:56;99115.06;;;23.48;49.81
46111;BME280;31849;55.992;37.252;2023-05-25T09:56:00;99111.03;;;23.43;49.54
46111;BME280;31849;55.992;37.252;2023-05-25T10:01:06;99113.88;;;23.40;49.79
46111;BME280;31849;55.992;37.252;2023-05-25T10:06:10;99103.97;;;23.27;50.24
46111;BME280;31849;55.992;37.252;2023-05-25T10:11:15;99110.97;;;23.14;50.37
46111;BME280;31849;55.992;37.252;2023-05-25T10:16:24;99116.59;;;23.24;50.27
46111;BME280;31849;55.992;37.252;2023-05-25T10:21:29;99119.53;;;23.19;50.57
46111;BME280;31849;55.992;37.252;2023-05-25T10:26:35;99117.34;;;23.26;50.43
46111;BME280;31849;55.992;37.252;2023-05-25T10:31:44;99111.56;;;23.48;49.87
46111;BME280;31849;55.992;37.252;2023-05-25T10:36:49;99120.78;;;23.57;49.06
46111;BME280;31849;55.992;37.252;2023-05-25T10:41:54;99117.09;;;23.59;48.47
46111;BME280;31849;55.992;37.252;2023-05-25T10:46:59;99109.38;;;23.26;49.55
46111;BME280;31849;55.992;37.252;2023-05-25T10:52:03;99117.72;;;22.89;50.14
46111;BME280;31849;55.992;37.252;2023-05-25T10:57:08;99114.22;;;22.73;50.49
46111;BME280;31849;55.992;37.252;2023-05-25T11:02:13;99114.22;;;22.73;50.58
46111;BME280;31849;55.992;37.252;2023-05-25T11:07:20;99105.31;;;22.90;49.98
46111;BME280;31849;55.992;37.252;2023-05-25T11:12:25;99093.50;;;22.95;49.62
46111;BME280;31849;55.992;37.252;2023-05-25T11:17:30;99095.38;;;22.93;49.52
46111;BME280;31849;55.992;37.252;2023-05-25T11:22:37;99092.88;;;22.76;50.00
46111;BME280;31849;55.992;37.252;2023-05-25T11:27:44;99093.72;;;22.76;50.14
46111;BME280;31849;55.992;37.252;2023-05-25T11:32:49;99086.88;;;23.03;49.85
46111;BME280;31849;55.992;37.252;2023-05-25T11:37:53;99075.84;;;23.25;48.56
46111;BME280;31849;55.992;37.252;2023-05-25T11:42:58;99070.00;;;23.34;48.40
46111;BME280;31849;55.992;37.252;2023-05-25T11:48:04;99066.75;;;23.14;48.88
46111;BME280;31849;55.992;37.252;2023-05-25T11:53:08;99054.25;;;22.86;49.10
46111;BME280;31849;55.992;37.252;2023-05-25T11:58:13;98985.81;;;22.34;49.28
46111;BME280;31849;55.992;37.252;2023-05-25T12:03:31;99057.38;;;22.48;49.92
46111;BME280;31849;55.992;37.252;2023-05-25T12:08:35;99061.13;;;22.28;49.89
46111;BME280;31849;55.992;37.252;2023-05-25T12:13:39;99053.81;;;22.17;50.14
46111;BME280;31849;55.992;37.252;2023-05-25T12:18:45;99046.63;;;22.35;50.16
46111;BME280;31849;55.992;37.252;2023-05-25T12:23:49;99046.38;;;22.40;50.19
46111;BME280;31849;55.992;37.252;2023-05-25T12:29:00;99049.25;;;22.51;49.77
46111;BME280;31849;55.992;37.252;2023-05-25T12:34:09;99055.22;;;22.85;48.96
46111;BME280;31849;55.992;37.252;2023-05-25T12:39:14;99052.63;;;23.14;48.00
46111;BME280;31849;55.992;37.252;2023-05-25T12:44:25;99038.41;;;23.44;47.20
46111;BME280;31849;55.992;37.252;2023-05-25T12:49:31;99043.34;;;23.50;47.76
46111;BME280;31849;55.992;37.252;2023-05-25T12:54:37;99037.28;;;23.62;47.23
46111;BME280;31849;55.992;37.252;2023-05-25T12:59:43;99036.06;;;23.53;46.39
46111;BME280;31849;55.992;37.252;2023-05-25T13:04:48;99032.47;;;23.55;46.18
46111;BME280;31849;55.992;37.252;2023-05-25T13:09:51;99015.66;;;23.68;46.00
46111;BME280;31849;55.992;37.252;2023-05-25T13:14:55;99022.94;;;23.94;44.94
46111;BME280;31849;55.992;37.252;2023-05-25T13:20:00;99025.06;;;24.29;44.71
46111;BME280;31849;55.992;37.252;2023-05-25T13:25:05;99018.81;;;24.30;43.76
46111;BME280;31849;55.992;37.252;2023-05-25T13:30:09;99018.19;;;24.66;44.38
46111;BME280;31849;55.992;37.252;2023-05-25T13:35:14;99023.00;;;25.13;42.65
46111;BME280;31849;55.992;37.252;2023-05-25T13:40:24;99012.06;;;25.30;41.59
46111;BME280;31849;55.992;37.252;2023-05-25T13:45:28;99009.41;;;25.30;41.73
46111;BME280;31849;55.992;37.252;2023-05-25T13:50:33;99012.56;;;25.48;40.95
46111;BME280;31849;55.992;37.252;2023-05-25T13:55:37;99006.81;;;25.28;41.62
46111;BME280;31849;55.992;37.252;2023-05-25T14:00:40;99001.06;;;24.83;41.90
46111;BME280;31849;55.992;37.252;2023-05-25T14:05:46;99006.81;;;24.77;42.30
46111;BME280;31849;55.992;37.252;2023-05-25T14:10:51;99001.66;;;24.48;42.37
46111;BME280;31849;55.992;37.252;2023-05-25T14:15:55;98996.34;;;24.08;43.81
46111;BME280;31849;55.992;37.252;2023-05-25T14:21:00;98960.72;;;23.56;43.60
46111;BME280;31849;55.992;37.252;2023-05-25T14:26:03;98981.75;;;23.59;43.37
46111;BME280;31849;55.992;37.252;2023-05-25T14:31:07;98970.75;;;23.65;43.94
46111;BME280;31849;55.992;37.252;2023-05-25T14:36:12;98958.72;;;23.45;44.30
46111;BME280;31849;55.992;37.252;2023-05-25T14:41:16;98961.97;;;23.22;44.63
46111;BME280;31849;55.992;37.252;2023-05-25T14:46:19;98957.41;;;22.95;44.99
46111;BME280;31849;55.992;37.252;2023-05-25T14:51:25;98957.78;;;22.74;45.72
46111;BME280;31849;55.992;37.252;2023-05-25T14:56:28;98949.06;;;22.58;46.34
46111;BME280;31849;55.992;37.252;2023-05-25T15:01:33;98935.81;;;22.58;46.17
46111;BME280;31849;55.992;37.252;2023-05-25T15:06:38;98942.81;;;22.59;46.17
46111;BME280;31849;55.992;37.252;2023-05-25T15:11:42;98943.66;;;22.45;45.95
46111;BME280;31849;55.992;37.252;2023-05-25T15:16:45;98941.19;;;22.56;46.06
46111;BME280;31849;55.992;37.252;2023-05-25T15:21:50;98941.97;;;22.58;45.91
46111;BME280;31849;55.992;37.252;2023-05-25T15:26:54;98945.28;;;22.62;45.99
46111;BME280;31849;55.992;37.252;2023-05-25T15:31:57;98940.75;;;22.64;46.04
46111;BME280;31849;55.992;37.252;2023-05-25T15:37:03;98940.94;;;22.75;46.58
46111;BME280;31849;55.992;37.252;2023-05-25T15:42:07;98946.34;;;22.74;46.35
46111;BME280;31849;55.992;37.252;2023-05-25T15:47:10;98944.13;;;22.52;45.93
46111;BME280;31849;55.992;37.252;2023-05-25T15:52:15;98954.91;;;22.48;46.54
46111;BME280;31849;55.992;37.252;2023-05-25T15:57:19;98957.28;;;22.39;46.34
46111;BME280;31849;55.992;37.252;2023-05-25T16:02:22;98948.03;;;22.30;46.78
46111;BME280;31849;55.992;37.252;2023-05-25T16:07:27;98947.91;;;22.17;46.93
46111;BME280;31849;55.992;37.252;2023-05-25T16:12:31;98952.94;;;22.06;47.62
46111;BME280;31849;55.992;37.252;2023-05-25T16:17:34;98950.00;;;21.96;48.14
46111;BME280;31849;55.992;37.252;2023-05-25T16:22:39;98943.44;;;21.87;48.47
46111;BME280;31849;55.992;37.252;2023-05-25T16:27:45;98946.28;;;21.84;48.63
46111;BME280;31849;55.992;37.252;2023-05-25T16:32:48;98935.84;;;21.81;48.71
46111;BME280;31849;55.992;37.252;2023-05-25T16:37:53;98938.50;;;21.65;49.33
46111;BME280;31849;55.992;37.252;2023-05-25T16:42:57;98937.63;;;21.49;49.67
46111;BME280;31849;55.992;37.252;2023-05-25T16:48:00;98934.56;;;21.40;50.24
46111;BME280;31849;55.992;37.252;2023-05-25T16:53:05;98933.03;;;21.36;50.76
46111;BME280;31849;55.992;37.252;2023-05-25T16:58:09;98928.06;;;21.30;50.74
46111;BME280;31849;55.992;37.252;2023-05-25T17:03:13;98932.09;;;21.21;51.05
46111;BME280;31849;55.992;37.252;2023-05-25T17:08:18;98940.09;;;21.04;51.60
46111;BME280;31849;55.992;37.252;2023-05-25T17:13:22;98925.03;;;20.88;52.36
46111;BME280;31849;55.992;37.252;2023-05-25T17:18:25;98927.47;;;20.58;53.16
46111;BME280;31849;55.992;37.252;2023-05-25T17:23:30;98944.66;;;20.32;53.14
46111;BME280;31849;55.992;37.252;2023-05-25T17:28:34;98949.16;;;20.12;54.52
46111;BME280;31849;55.992;37.252;2023-05-25T17:33:37;98942.94;;;19.96;55.03
46111;BME280;31849;55.992;37.252;2023-05-25T17:38:42;98959.53;;;19.80;55.73
46111;BME280;31849;55.992;37.252;2023-05-25T17:43:46;98959.59;;;19.60;56.31
46111;BME280;31849;55.992;37.252;2023-05-25T17:48:49;98944.16;;;19.33;56.59
46111;BME280;31849;55.992;37.252;2023-05-25T17:53:54;98954.25;;;19.23;57.77
46111;BME280;31849;55.992;37.252;2023-05-25T17:58:58;98952.59;;;19.02;58.23
46111;BME280;31849;55.992;37.252;2023-05-25T18:04:02;98953.53;;;18.80;58.91
46111;BME280;31849;55.992;37.252;2023-05-25T18:09:07;98955.19;;;18.41;59.84
46111;BME280;31849;55.992;37.252;2023-05-25T18:14:11;98954.69;;;18.11;60.53
46111;BME280;31849;55.992;37.252;2023-05-25T18:19:14;98951.72;;;17.98;60.68
46111;BME280;31849;55.992;37.252;2023-05-25T18:24:23;98952.91;;;17.91;60.91
46111;BME280;31849;55.992;37.252;2023-05-25T18:29:26;98946.31;;;17.57;61.83
46111;BME280;31849;55.992;37.252;2023-05-25T18:34:30;98935.97;;;17.30;62.04
46111;BME280;31849;55.992;37.252;2023-05-25T18:39:35;98944.53;;;17.35;62.32
46111;BME280;31849;55.992;37.252;2023-05-25T18:44:39;98945.69;;;17.28;62.45
46111;BME280;31849;55.992;37.252;2023-05-25T18:49:42;98940.63;;;17.23;62.86
46111;BME280;31849;55.992;37.252;2023-05-25T18:54:47;98944.28;;;17.19;63.33
46111;BME280;31849;55.992;37.252;2023-05-25T18:59:52;98942.31;;;17.01;63.88
46111;BME280;31849;55.992;37.252;2023-05-25T19:04:56;98940.75;;;16.95;64.11
46111;BME280;31849;55.992;37.252;2023-05-25T19:10:01;98946.19;;;16.91;64.22
46111;BME280;31849;55.992;37.252;2023-05-25T19:15:05;98939.38;;;16.85;64.20
46111;BME280;31849;55.992;37.252;2023-05-25T19:20:10;98943.19;;;16.76;64.30
46111;BME280;31849;55.992;37.252;2023-05-25T19:25:16;98938.31;;;16.65;64.30
46111;BME280;31849;55.992;37.252;2023-05-25T19:30:21;98939.81;;;16.47;64.81
46111;BME280;31849;55.992;37.252;2023-05-25T19:35:24;98955.72;;;16.43;64.93
46111;BME280;31849;55.992;37.252;2023-05-25T19:40:30;98952.53;;;16.34;65.18
46111;BME280;31849;55.992;37.252;2023-05-25T19:45:34;98953.81;;;16.23;65.39
46111;BME280;31849;55.992;37.252;2023-05-25T19:50:38;98952.34;;;16.14;65.71
46111;BME280;31849;55.992;37.252;2023-05-25T19:55:42;98949.88;;;16.09;65.85
46111;BME280;31849;55.992;37.252;2023-05-25T20:00:47;98951.88;;;16.01;65.85
46111;BME280;31849;55.992;37.252;2023-05-25T20:05:50;98922.94;;;15.76;65.58
46111;BME280;31849;55.992;37.252;2023-05-25T20:10:55;98960.41;;;15.81;66.05
46111;BME280;31849;55.992;37.252;2023-05-25T20:15:59;98946.78;;;15.68;66.06
46111;BME280;31849;55.992;37.252;2023-05-25T20:21:04;98964.19;;;15.71;66.21
46111;BME280;31849;55.992;37.252;2023-05-25T20:26:09;98971.31;;;15.65;66.25
46111;BME280;31849;55.992;37.252;2023-05-25T20:31:12;98967.06;;;15.61;66.10
46111;BME280;31849;55.992;37.252;2023-05-25T20:36:16;98970.75;;;15.56;66.18
46111;BME280;31849;55.992;37.252;2023-05-25T20:41:21;98973.59;;;15.48;66.25
46111;BME280;31849;55.992;37.252;2023-05-25T20:46:24;98972.06;;;15.41;66.30
46111;BME280;31849;55.992;37.252;2023-05-25T20:51:28;98965.41;;;15.29;66.21
46111;BME280;31849;55.992;37.252;2023-05-25T20:56:35;98969.16;;;15.22;66.68
46111;BME280;31849;55.992;37.252;2023-05-25T21:01:40;98958.13;;;15.10;66.82
46111;BME280;31849;55.992;37.252;2023-05-25T21:06:45;98958.16;;;15.09;67.18
46111;BME280;31849;55.992;37.252;2023-05-25T21:11:50;98955.78;;;15.01;66.80
46111;BME280;31849;55.992;37.252;2023-05-25T21:16:53;98959.50;;;14.92;66.65
46111;BME280;31849;55.992;37.252;2023-05-25T21:21:57;98958.66;;;14.90;66.78
46111;BME280;31849;55.992;37.252;2023-05-25T21:27:02;98957.91;;;14.87;66.96
46111;BME280;31849;55.992;37.252;2023-05-25T21:32:06;98948.59;;;14.76;66.97
46111;BME280;31849;55.992;37.252;2023-05-25T21:37:10;98953.91;;;14.73;66.94
46111;BME280;31849;55.992;37.252;2023-05-25T21:42:15;98944.44;;;14.69;67.09
46111;BME280;31849;55.992;37.252;2023-05-25T21:47:19;98942.94;;;14.59;67.32
46111;BME280;31849;55.992;37.252;2023-05-25T21:52:23;98931.78;;;14.52;67.36
46111;BME280;31849;55.992;37.252;2023-05-25T21:57:28;98931.03;;;14.47;67.61
46111;BME280;31849;55.992;37.252;2023-05-25T22:02:31;98914.63;;;14.42;67.91
46111;BME280;31849;55.992;37.252;2023-05-25T22:07:35;98925.09;;;14.42;67.54
46111;BME280;31849;55.992;37.252;2023-05-25T22:12:40;98927.75;;;14.40;67.74
46111;BME280;31849;55.992;37.252;2023-05-25T22:17:44;98917.41;;;14.36;67.68
46111;BME280;31849;55.992;37.252;2023-05-25T22:22:48;98905.47;;;14.25;67.28
46111;BME280;31849;55.992;37.252;2023-05-25T22:27:53;98902.06;;;14.22;67.83
46111;BME280;31849;55.992;37.252;2023-05-25T22:32:57;98905.69;;;14.18;67.71
46111;BME280;31849;55.992;37.252;2023-05-25T22:38:01;98904.13;;;14.11;67.85
46111;BME280;31849;55.992;37.252;2023-05-25T22:43:06;98898.97;;;14.07;67.82
46111;BME280;31849;55.992;37.252;2023-05-25T22:48:13;98903.47;;;14.01;67.89
46111;BME280;31849;55.992;37.252;2023-05-25T22:53:17;98899.25;;;13.95;67.85
46111;BME280;31849;55.992;37.252;2023-05-25T22:58:22;98898.50;;;13.92;67.49
46111;BME280;31849;55.992;37.252;2023-05-25T23:03:26;98894.34;;;13.83;67.54
46111;BME280;31849;55.992;37.252;2023-05-25T23:08:31;98888.34;;;13.79;67.70
46111;BME280;31849;55.992;37.252;2023-05-25T23:13:36;98896.28;;;13.75;67.93
46111;BME280;31849;55.992;37.252;2023-05-25T23:18:40;98885.97;;;13.68;68.04
46111;BME280;31849;55.992;37.252;2023-05-25T23:23:43;98889.63;;;13.63;68.49
46111;BME280;31849;55.992;37.252;2023-05-25T23:28:48;98880.22;;;13.56;68.65
46111;BME280;31849;55.992;37.252;2023-05-25T23:33:52;98895.84;;;13.57;68.23
46111;BME280;31849;55.992;37.252;2023-05-25T23:38:59;98888.13;;;13.52;68.20
46111;BME280;31849;55.992;37.252;2023-05-25T23:44:04;98894.34;;;13.47;69.04
46111;BME280;31849;55.992;37.252;2023-05-25T23:49:08;98897.19;;;13.38;69.02
46111;BME280;31849;55.992;37.252;2023-05-25T23:54:11;98907.75;;;13.30;68.86
46111;BME280;31849;55.992;37.252;2023-05-25T23:59:16;98913.03;;;13.27;68.68
